Time;durP1;ratioP1;P1;durP2;ratioP2;P2;SDS_P1;SDS_P2;PMS_P1;PMS_P2;Temp;Humidity;BMP_temperature;BMP_pressure;BME280_temperature;BME280_humidity;BME280_pressure;Samples;Min_cycle;Max_cycle;Signal;HPM_P1;HPM_P2
2023/01/10 00:02:20;;;;;;;;;;;;;;;;;;5107166;27;81935;-37
2023/01/10 00:04:46;;;;;;;;;;;;;;;;;;5107639;27;83256;-37
2023/01/10 00:07:12;;;;;;;;;;;;;;;;;;5109819;27;82814;-37
2023/01/10 00:09:38;;;;;;;;;;;;;;;;;;5107459;27;82997;-37
2023/01/10 00:14:48;;;;;;;;;;;;;;;;;;5107022;27;81828;-37
2023/01/10 00:17:14;;;;;;;;;;;;;;;;;;5107162;27;82155;-37
2023/01/10 00:19:40;;;;;;;;;;;;;;;;;;5107594;27;83476;-37
2023/01/10 00:22:07;;;;;;;;;;;;;;;;;;5107045;27;83263;-37
2023/01/10 00:24:32;;;;;;;;;;;;;;;;;;5107499;27;83838;-37
2023/01/10 00:26:58;;;;;;;;;;;;;;;;;;5107451;27;81949;-37
2023/01/10 00:29:24;;;;;;;;;;;;;;;;;;5109576;27;82355;-37
2023/01/10 00:31:50;;;;;;;;;;;;;;;;;;5106644;27;83562;-37
2023/01/10 00:34:16;;;;;;;;;;;;;;;;;;5107241;27;81988;-37
2023/01/10 00:36:44;;;;;;;;;;;;;;;;;;5107179;27;83129;-37
2023/01/10 00:39:10;;;;;;;;;;;;;;;;;;5107211;27;82175;-37
2023/01/10 00:44:20;;;;;;;;;;;;;;;;;;5107022;27;82135;-37
2023/01/10 00:46:46;;;;;;;;;;;;;;;;;;5107165;27;82180;-37
2023/01/10 00:49:15;;;;;;;;;;;;;;;;;;5106868;27;82010;-37
2023/01/10 00:51:40;;;;;;;;;;;;;;;;;;5109477;27;83041;-37
2023/01/10 00:54:06;;;;;;;;;;;;;;;;;;5107094;27;81844;-37
2023/01/10 00:56:32;;;;;;;;;;;;;;;;;;5105987;27;84037;-37
2023/01/10 00:58:58;;;;;;;;;;;;;;;;;;5107036;27;82097;-37
2023/01/10 01:01:24;;;;;;;;;;;;;;;;;;5107146;27;81929;-37
2023/01/10 01:03:50;;;;;;;;;;;;;;;;;;5106747;27;82038;-37
2023/01/10 01:06:16;;;;;;;;;;;;;;;;;;5106878;27;82286;-37
2023/01/10 01:08:42;;;;;;;;;;;;;;;;;;5106991;27;81938;-37
2023/01/10 01:11:08;;;;;;;;;;;;;;;;;;5106484;27;82988;-37
2023/01/10 01:13:35;;;;;;;;;;;;;;;;;;5111569;27;81097;-37
2023/01/10 01:16:01;;;;;;;;;;;;;;;;;;5109769;27;83516;-37
2023/01/10 01:18:26;;;;;;;;;;;;;;;;;;5110279;27;82082;-37
2023/01/10 01:20:53;;;;;;;;;;;;;;;;;;5109463;27;83438;-37
2023/01/10 01:23:19;;;;;;;;;;;;;;;;;;5109941;27;83525;-37
2023/01/10 01:25:44;;;;;;;;;;;;;;;;;;5109934;27;82122;-37
2023/01/10 01:28:10;;;;;;;;;;;;;;;;;;5109992;27;81971;-37
2023/01/10 01:30:36;;;;;;;;;;;;;;;;;;5109739;27;83021;-37
2023/01/10 01:33:02;;;;;;;;;;;;;;;;;;5112584;27;81958;-37
2023/01/10 01:35:28;;;;;;;;;;;;;;;;;;5109753;27;83116;-37
2023/01/10 01:37:54;;;;;;;;;;;;;;;;;;5110602;27;81395;-37
2023/01/10 01:40:20;;;;;;;;;;;;;;;;;;5109983;27;82684;-37
2023/01/10 01:42:46;;;;;;;;;;;;;;;;;;5109345;27;82025;-37
2023/01/10 01:45:12;;;;;;;;;;;;;;;;;;5109101;27;82989;-37
2023/01/10 01:47:38;;;;;;;;;;;;;;;;;;5109467;27;84368;-38
2023/01/10 01:50:03;;;;;;;;;;;;;;;;;;5109228;27;83165;-37
2023/01/10 01:52:29;;;;;;;;;;;;;;;;;;5109763;27;82177;-37
2023/01/10 01:54:55;;;;;;;;;;;;;;;;;;5112462;27;81975;-37
2023/01/10 01:57:21;;;;;;;;;;;;;;;;;;5109396;27;82268;-37
2023/01/10 01:59:47;;;;;;;;;;;;;;;;;;5109453;27;82046;-37
2023/01/10 02:02:13;;;;;;;;;;;;;;;;;;5110044;27;82302;-37
2023/01/10 02:04:39;;;;;;;;;;;;;;;;;;5109496;27;82079;-37
2023/01/10 02:07:05;;;;;;;;;;;;;;;;;;5109435;27;82008;-37
2023/01/10 02:09:30;;;;;;;;;;;;;;;;;;5108635;27;84171;-37
2023/01/10 02:11:56;;;;;;;;;;;;;;;;;;5109032;27;82124;-37
2023/01/10 02:14:22;;;;;;;;;;;;;;;;;;5109347;27;81920;-37
2023/01/10 02:16:48;;;;;;;;;;;;;;;;;;5111728;27;82994;-37
2023/01/10 02:19:14;;;;;;;;;;;;;;;;;;5109453;27;81861;-37
2023/01/10 02:21:40;;;;;;;;;;;;;;;;;;5109095;27;83175;-37
2023/01/10 02:24:06;;;;;;;;;;;;;;;;;;5108910;27;82179;-37
2023/01/10 02:26:32;;;;;;;;;;;;;;;;;;5109503;27;81798;-37
2023/01/10 02:28:57;;;;;;;;;;;;;;;;;;5108996;27;83061;-37
2023/01/10 02:31:25;;;;;;;;;;;;;;;;;;5109075;27;81958;-37
2023/01/10 02:33:50;;;;;;;;;;;;;;;;;;5108155;27;83414;-37
2023/01/10 02:36:16;;;;;;;;;;;;;;;;;;5108922;27;83029;-37
2023/01/10 02:38:42;;;;;;;;;;;;;;;;;;5111814;27;81784;-37
2023/01/10 02:41:08;;;;;;;;;;;;;;;;;;5108664;27;83145;-37
2023/01/10 02:43:34;;;;;;;;;;;;;;;;;;5108916;27;82164;-37
2023/01/10 02:46:00;;;;;;;;;;;;;;;;;;5108711;27;82601;-37
2023/01/10 02:48:26;;;;;;;;;;;;;;;;;;5108043;27;83058;-37
2023/01/10 02:50:52;;;;;;;;;;;;;;;;;;5109213;27;81182;-37
2023/01/10 02:53:18;;;;;;;;;;;;;;;;;;5108732;27;81857;-37
2023/01/10 02:55:43;;;;;;;;;;;;;;;;;;5108514;27;82065;-37
2023/01/10 02:58:09;;;;;;;;;;;;;;;;;;5108140;27;83083;-37
2023/01/10 03:00:35;;;;;;;;;;;;;;;;;;5110795;27;84638;-37
2023/01/10 03:03:01;;;;;;;;;;;;;;;;;;5108640;27;82073;-37
2023/01/10 03:05:27;;;;;;;;;;;;;;;;;;5108347;27;83182;-37
2023/01/10 03:07:53;;;;;;;;;;;;;;;;;;5108264;27;82896;-37
2023/01/10 03:10:19;;;;;;;;;;;;;;;;;;5108283;27;82156;-37
2023/01/10 03:12:45;;;;;;;;;;;;;;;;;;5108240;27;81981;-38
2023/01/10 03:15:11;;;;;;;;;;;;;;;;;;5108758;27;82255;-37
2023/01/10 03:17:36;;;;;;;;;;;;;;;;;;5107960;27;82020;-37
2023/01/10 03:20:03;;;;;;;;;;;;;;;;;;5110905;27;82088;-37
2023/01/10 03:22:29;;;;;;;;;;;;;;;;;;5107403;27;82962;-37
2023/01/10 03:24:55;;;;;;;;;;;;;;;;;;5108258;27;83166;-37
2023/01/10 03:27:21;;;;;;;;;;;;;;;;;;5107765;27;83026;-37
2023/01/10 03:29:47;;;;;;;;;;;;;;;;;;5108180;27;82125;-37
2023/01/10 03:32:13;;;;;;;;;;;;;;;;;;5108028;27;81916;-37
2023/01/10 03:34:38;;;;;;;;;;;;;;;;;;5107873;27;82967;-37
2023/01/10 03:37:04;;;;;;;;;;;;;;;;;;5107443;27;82207;-37
2023/01/10 03:39:30;;;;;;;;;;;;;;;;;;5108269;27;81899;-37
2023/01/10 03:41:56;;;;;;;;;;;;;;;;;;5110213;27;83578;-37
2023/01/10 03:47:06;;;;;;;;;;;;;;;;;;5105650;27;83058;-37
2023/01/10 03:49:32;;;;;;;;;;;;;;;;;;5107596;27;84528;-37
2023/01/10 03:51:58;;;;;;;;;;;;;;;;;;5108086;27;82189;-37
2023/01/10 03:54:24;;;;;;;;;;;;;;;;;;5106998;27;83898;-37
2023/01/10 03:56:50;;;;;;;;;;;;;;;;;;5107588;27;81977;-37
2023/01/10 03:59:16;;;;;;;;;;;;;;;;;;5107725;27;81929;-37
2023/01/10 04:01:42;;;;;;;;;;;;;;;;;;5107475;27;83126;-37
2023/01/10 04:04:08;;;;;;;;;;;;;;;;;;5111055;27;81291;-37
2023/01/10 04:06:34;;;;;;;;;;;;;;;;;;5107543;27;82214;-37
2023/01/10 04:09:00;;;;;;;;;;;;;;;;;;5107610;27;81989;-37
2023/01/10 04:11:26;;;;;;;;;;;;;;;;;;5106848;27;82919;-37
2023/01/10 04:13:51;;;;;;;;;;;;;;;;;;5107344;27;82885;-37
2023/01/10 04:16:19;;;;;;;;;;;;;;;;;;5107569;27;82174;-37
2023/01/10 04:18:44;;;;;;;;;;;;;;;;;;5107095;27;82049;-37
2023/01/10 04:21:10;;;;;;;;;;;;;;;;;;5107195;27;83074;-38
2023/01/10 04:23:36;;;;;;;;;;;;;;;;;;5107402;27;82151;-37
2023/01/10 04:26:02;;;;;;;;;;;;;;;;;;5110204;27;81994;-37
2023/01/10 04:28:28;;;;;;;;;;;;;;;;;;5107924;27;81391;-37
2023/01/10 04:30:54;;;;;;;;;;;;;;;;;;5107085;27;82821;-37
2023/01/10 04:33:20;;;;;;;;;;;;;;;;;;5107208;27;83295;-37
2023/01/10 04:35:46;;;;;;;;;;;;;;;;;;5106782;27;83059;-37
2023/01/10 04:38:12;;;;;;;;;;;;;;;;;;5107217;27;82747;-37
2023/01/10 04:40:38;;;;;;;;;;;;;;;;;;5107078;27;83022;-37
2023/01/10 04:43:04;;;;;;;;;;;;;;;;;;5107283;27;81901;-37
2023/01/10 04:45:30;;;;;;;;;;;;;;;;;;5107080;27;82039;-37
2023/01/10 04:47:56;;;;;;;;;;;;;;;;;;5109967;27;82088;-37
2023/01/10 04:50:22;;;;;;;;;;;;;;;;;;5110742;27;82060;-37
2023/01/10 04:52:48;;;;;;;;;;;;;;;;;;5110595;27;83717;-37
2023/01/10 04:55:14;;;;;;;;;;;;;;;;;;5110591;27;81843;-37
2023/01/10 04:57:40;;;;;;;;;;;;;;;;;;5110643;27;81993;-37
2023/01/10 05:00:05;;;;;;;;;;;;;;;;;;5109678;27;83962;-37
2023/01/10 05:02:31;;;;;;;;;;;;;;;;;;5110403;27;82125;-37
2023/01/10 05:04:57;;;;;;;;;;;;;;;;;;5110489;27;81904;-38
2023/01/10 05:07:23;;;;;;;;;;;;;;;;;;5110374;27;82940;-37
2023/01/10 05:09:49;;;;;;;;;;;;;;;;;;5112892;27;82215;-37
2023/01/10 05:12:15;;;;;;;;;;;;;;;;;;5110240;27;82907;-37
2023/01/10 05:14:41;;;;;;;;;;;;;;;;;;5110182;27;82091;-37
2023/01/10 05:17:07;;;;;;;;;;;;;;;;;;5110729;27;83318;-37
2023/01/10 05:19:32;;;;;;;;;;;;;;;;;;5109565;27;83436;-37
2023/01/10 05:21:58;;;;;;;;;;;;;;;;;;5110403;27;82136;-37
2023/01/10 05:24:24;;;;;;;;;;;;;;;;;;5109241;27;82819;-37
2023/01/10 05:26:50;;;;;;;;;;;;;;;;;;5110080;27;82952;-37
2023/01/10 05:29:16;;;;;;;;;;;;;;;;;;5112937;27;82267;-37
2023/01/10 05:31:42;;;;;;;;;;;;;;;;;;5109868;27;82904;-37
2023/01/10 05:34:08;;;;;;;;;;;;;;;;;;5110274;27;82208;-37
2023/01/10 05:36:33;;;;;;;;;;;;;;;;;;5110024;27;81991;-37
2023/01/10 05:38:59;;;;;;;;;;;;;;;;;;5109433;27;83013;-37
2023/01/10 05:41:25;;;;;;;;;;;;;;;;;;5110313;27;81384;-37
2023/01/10 05:43:51;;;;;;;;;;;;;;;;;;5109916;27;81931;-37
2023/01/10 05:46:17;;;;;;;;;;;;;;;;;;5109575;27;82108;-37
2023/01/10 05:48:43;;;;;;;;;;;;;;;;;;5108747;27;83083;-37
2023/01/10 05:51:09;;;;;;;;;;;;;;;;;;5112391;27;82911;-37
2023/01/10 05:53:35;;;;;;;;;;;;;;;;;;5109597;27;81972;-37
2023/01/10 05:56:00;;;;;;;;;;;;;;;;;;5109737;27;81936;-37
2023/01/10 05:58:26;;;;;;;;;;;;;;;;;;5108943;27;82691;-37
2023/01/10 06:00:52;;;;;;;;;;;;;;;;;;5109677;27;82031;-37
2023/01/10 06:03:18;;;;;;;;;;;;;;;;;;5109409;27;82028;-37
2023/01/10 06:05:44;;;;;;;;;;;;;;;;;;5109860;27;81333;-37
2023/01/10 06:08:10;;;;;;;;;;;;;;;;;;5109243;27;82203;-37
2023/01/10 06:10:36;;;;;;;;;;;;;;;;;;5109483;27;82539;-37
2023/01/10 06:13:03;;;;;;;;;;;;;;;;;;5111340;27;82887;-37
2023/01/10 06:15:29;;;;;;;;;;;;;;;;;;5109003;27;84688;-37
2023/01/10 06:17:55;;;;;;;;;;;;;;;;;;5108913;27;83123;-37
2023/01/10 06:20:21;;;;;;;;;;;;;;;;;;5109187;27;81862;-37
2023/01/10 06:22:47;;;;;;;;;;;;;;;;;;5109370;27;81980;-37
2023/01/10 06:25:13;;;;;;;;;;;;;;;;;;5109144;27;82337;-38
2023/01/10 06:27:39;;;;;;;;;;;;;;;;;;5109311;27;82154;-37
2023/01/10 06:30:04;;;;;;;;;;;;;;;;;;5109431;27;82467;-37
2023/01/10 06:32:30;;;;;;;;;;;;;;;;;;5108887;27;82925;-37
2023/01/10 06:34:56;;;;;;;;;;;;;;;;;;5111891;27;82498;-37
2023/01/10 06:37:22;;;;;;;;;;;;;;;;;;5107823;27;83016;-37
2023/01/10 06:39:50;;;;;;;;;;;;;;;;;;5108759;27;82094;-37
2023/01/10 06:42:15;;;;;;;;;;;;;;;;;;5108740;27;82481;-37
2023/01/10 06:44:41;;;;;;;;;;;;;;;;;;5108784;27;83019;-37
2023/01/10 06:47:07;;;;;;;;;;;;;;;;;;5108875;27;82022;-37
2023/01/10 06:49:33;;;;;;;;;;;;;;;;;;5108735;27;81908;-38
2023/01/10 06:51:59;;;;;;;;;;;;;;;;;;5108610;27;82169;-38
2023/01/10 06:54:25;;;;;;;;;;;;;;;;;;5108992;27;81636;-37
2023/01/10 06:56:51;;;;;;;;;;;;;;;;;;5111582;27;81853;-37
2023/01/10 06:59:17;;;;;;;;;;;;;;;;;;5108560;27;82189;-37
2023/01/10 07:01:42;;;;;;;;;;;;;;;;;;5108168;27;82996;-37
2023/01/10 07:04:08;;;;;;;;;;;;;;;;;;5108526;27;83034;-37
2023/01/10 07:06:36;;;;;;;;;;;;;;;;;;5108319;27;82243;-37
2023/01/10 07:09:01;;;;;;;;;;;;;;;;;;5108379;27;81997;-37
2023/01/10 07:11:27;;;;;;;;;;;;;;;;;;5107256;27;83098;-37
2023/01/10 07:13:53;;;;;;;;;;;;;;;;;;5108405;27;82353;-37
2023/01/10 07:16:19;;;;;;;;;;;;;;;;;;5108204;27;82544;-37
2023/01/10 07:18:45;;;;;;;;;;;;;;;;;;5111497;27;82238;-37
2023/01/10 07:21:11;;;;;;;;;;;;;;;;;;5108274;27;82051;-37
2023/01/10 07:23:37;;;;;;;;;;;;;;;;;;5108036;27;82900;-37
2023/01/10 07:26:03;;;;;;;;;;;;;;;;;;5107679;27;83072;-37
2023/01/10 07:28:29;;;;;;;;;;;;;;;;;;5108317;27;82923;-37
2023/01/10 07:30:55;;;;;;;;;;;;;;;;;;5107826;27;82859;-37
2023/01/10 07:33:21;;;;;;;;;;;;;;;;;;5108165;27;82121;-37
2023/01/10 07:35:47;;;;;;;;;;;;;;;;;;5108120;27;82546;-37
2023/01/10 07:38:12;;;;;;;;;;;;;;;;;;5110514;27;82835;-37
2023/01/10 07:40:38;;;;;;;;;;;;;;;;;;5108062;27;81944;-37
2023/01/10 07:43:04;;;;;;;;;;;;;;;;;;5108246;27;82182;-37
2023/01/10 07:45:30;;;;;;;;;;;;;;;;;;5108076;27;81965;-37
2023/01/10 07:47:56;;;;;;;;;;;;;;;;;;5107343;27;82029;-37
2023/01/10 07:50:22;;;;;;;;;;;;;;;;;;5107062;27;84098;-37
2023/01/10 07:52:48;;;;;;;;;;;;;;;;;;5107979;27;82206;-37
2023/01/10 07:55:14;;;;;;;;;;;;;;;;;;5107996;27;82029;-37
2023/01/10 07:57:40;;;;;;;;;;;;;;;;;;5107689;27;82942;-37
2023/01/10 08:00:05;;;;;;;;;;;;;;;;;;5110631;27;81814;-37
2023/01/10 08:02:31;;;;;;;;;;;;;;;;;;5107500;27;83076;-38
2023/01/10 08:04:57;;;;;;;;;;;;;;;;;;5107710;27;81873;-37
2023/01/10 08:07:23;;;;;;;;;;;;;;;;;;5108168;27;81849;-37
2023/01/10 08:09:49;;;;;;;;;;;;;;;;;;5107510;27;82142;-37
2023/01/10 08:12:15;;;;;;;;;;;;;;;;;;5107644;27;82153;-37
2023/01/10 08:14:41;;;;;;;;;;;;;;;;;;5107047;27;82903;-37
2023/01/10 08:17:06;;;;;;;;;;;;;;;;;;5107483;27;82572;-37
2023/01/10 08:19:32;;;;;;;;;;;;;;;;;;5107006;27;82255;-37
2023/01/10 08:21:59;;;;;;;;;;;;;;;;;;5110854;27;81969;-37
2023/01/10 08:24:25;;;;;;;;;;;;;;;;;;5110856;27;82086;-37
2023/01/10 08:26:51;;;;;;;;;;;;;;;;;;5111094;27;82067;-37
2023/01/10 08:29:17;;;;;;;;;;;;;;;;;;5107471;27;87083;-37
2023/01/10 08:31:43;;;;;;;;;;;;;;;;;;5108048;27;86362;-37
2023/01/10 08:34:08;;;;;;;;;;;;;;;;;;5107546;27;87689;-37
2023/01/10 08:36:34;;;;;;;;;;;;;;;;;;5107104;27;87953;-37
2023/01/10 08:39:00;;;;;;;;;;;;;;;;;;5106844;27;88124;-37
2023/01/10 08:41:26;;;;;;;;;;;;;;;;;;5107337;27;88023;-37
2023/01/10 08:43:52;;;;;;;;;;;;;;;;;;5110156;27;88252;-37
2023/01/10 08:46:19;;;;;;;;;;;;;;;;;;5107472;27;86878;-37
2023/01/10 08:48:45;;;;;;;;;;;;;;;;;;5106250;27;89512;-37
2023/01/10 08:51:10;;;;;;;;;;;;;;;;;;5107097;27;87408;-37
2023/01/10 08:53:36;;;;;;;;;;;;;;;;;;5107327;27;87374;-37
2023/01/10 08:56:02;;;;;;;;;;;;;;;;;;5107495;27;87158;-37
2023/01/10 08:58:28;;;;;;;;;;;;;;;;;;5107158;27;87218;-38
2023/01/10 09:00:54;;;;;;;;;;;;;;;;;;5107127;27;87119;-37
2023/01/10 09:03:20;;;;;;;;;;;;;;;;;;5106116;27;88575;-37
2023/01/10 09:05:46;;;;;;;;;;;;;;;;;;5109957;27;87117;-37
2023/01/10 09:08:12;;;;;;;;;;;;;;;;;;5106602;27;87863;-37
2023/01/10 09:10:37;;;;;;;;;;;;;;;;;;5107037;27;87119;-37
2023/01/10 09:13:04;;;;;;;;;;;;;;;;;;5106987;27;86932;-37
2023/01/10 09:15:30;;;;;;;;;;;;;;;;;;5106155;27;89490;-37
2023/01/10 09:17:56;;;;;;;;;;;;;;;;;;5106739;27;86999;-37
2023/01/10 09:20:22;;;;;;;;;;;;;;;;;;5107413;27;86977;-37
2023/01/10 09:22:48;;;;;;;;;;;;;;;;;;5106315;27;88518;-37
2023/01/10 09:25:14;;;;;;;;;;;;;;;;;;5106776;27;87039;-38
2023/01/10 09:27:40;;;;;;;;;;;;;;;;;;5108808;27;87999;-37
2023/01/10 09:30:06;;;;;;;;;;;;;;;;;;5106668;27;87167;-37
2023/01/10 09:32:32;;;;;;;;;;;;;;;;;;5106667;27;86990;-37
2023/01/10 09:34:58;;;;;;;;;;;;;;;;;;5105375;27;87785;-37
2023/01/10 09:37:23;;;;;;;;;;;;;;;;;;5106205;27;87141;-37
2023/01/10 09:39:51;;;;;;;;;;;;;;;;;;5106700;27;86997;-37
2023/01/10 09:42:17;;;;;;;;;;;;;;;;;;5105968;27;88429;-37
2023/01/10 09:44:43;;;;;;;;;;;;;;;;;;5106889;27;86551;-37
2023/01/10 09:47:09;;;;;;;;;;;;;;;;;;5109067;27;87115;-37
2023/01/10 09:49:35;;;;;;;;;;;;;;;;;;5105861;27;87159;-37
2023/01/10 09:52:01;;;;;;;;;;;;;;;;;;5105503;27;88599;-38
2023/01/10 09:54:27;;;;;;;;;;;;;;;;;;5105975;27;87959;-37
2023/01/10 09:56:52;;;;;;;;;;;;;;;;;;5106529;27;87195;-37
2023/01/10 09:59:18;;;;;;;;;;;;;;;;;;5106256;27;86969;-37
2023/01/10 10:01:44;;;;;;;;;;;;;;;;;;5105859;27;88143;-37
2023/01/10 10:04:10;;;;;;;;;;;;;;;;;;5106199;27;87343;-37
2023/01/10 10:06:36;;;;;;;;;;;;;;;;;;5105888;27;87029;-37
2023/01/10 10:09:02;;;;;;;;;;;;;;;;;;5109334;27;87177;-37
2023/01/10 10:11:28;;;;;;;;;;;;;;;;;;5105989;27;87094;-37
2023/01/10 10:13:54;;;;;;;;;;;;;;;;;;5105726;27;87981;-37
2023/01/10 10:16:20;;;;;;;;;;;;;;;;;;5104948;27;87988;-37
2023/01/10 10:18:46;;;;;;;;;;;;;;;;;;5105744;27;87898;-37
2023/01/10 10:21:11;;;;;;;;;;;;;;;;;;5105352;27;87843;-37
2023/01/10 10:23:37;;;;;;;;;;;;;;;;;;5105494;27;87154;-37
2023/01/10 10:26:03;;;;;;;;;;;;;;;;;;5105670;27;87113;-37
2023/01/10 10:28:30;;;;;;;;;;;;;;;;;;5105479;27;87885;-37
2023/01/10 10:30:56;;;;;;;;;;;;;;;;;;5108724;27;87138;-37
2023/01/10 10:33:22;;;;;;;;;;;;;;;;;;5105739;27;88704;-37
2023/01/10 10:35:48;;;;;;;;;;;;;;;;;;5105521;27;87103;-37
2023/01/10 10:38:14;;;;;;;;;;;;;;;;;;5105828;27;87079;-37
2023/01/10 10:40:40;;;;;;;;;;;;;;;;;;5104587;27;88398;-37
2023/01/10 10:43:06;;;;;;;;;;;;;;;;;;5105550;27;87061;-37
2023/01/10 10:45:32;;;;;;;;;;;;;;;;;;5105618;27;87044;-37
2023/01/10 10:47:59;;;;;;;;;;;;;;;;;;5104819;27;88051;-37
2023/01/10 10:50:25;;;;;;;;;;;;;;;;;;5105312;27;87483;-37
2023/01/10 10:52:50;;;;;;;;;;;;;;;;;;5107837;27;86897;-37
2023/01/10 10:55:16;;;;;;;;;;;;;;;;;;5105391;27;87125;-37
2023/01/10 10:57:42;;;;;;;;;;;;;;;;;;5105643;27;88159;-37
2023/01/10 11:00:08;;;;;;;;;;;;;;;;;;5104677;27;87927;-37
2023/01/10 11:02:34;;;;;;;;;;;;;;;;;;5105082;27;87313;-37
2023/01/10 11:05:00;;;;;;;;;;;;;;;;;;5104719;27;87752;-37
2023/01/10 11:07:26;;;;;;;;;;;;;;;;;;5104633;27;87936;-37
2023/01/10 11:12:21;;;;;;;;;;;;;;;;;;5105269;27;87390;-37
2023/01/10 11:14:47;;;;;;;;;;;;;;;;;;5107629;27;87883;-37
2023/01/10 11:17:13;;;;;;;;;;;;;;;;;;5104850;27;88517;-37
2023/01/10 11:19:38;;;;;;;;;;;;;;;;;;5103994;27;87233;-37
2023/01/10 11:22:04;;;;;;;;;;;;;;;;;;5105488;27;86378;-37
2023/01/10 11:24:30;;;;;;;;;;;;;;;;;;5105091;27;86889;-37
2023/01/10 11:26:56;;;;;;;;;;;;;;;;;;5104490;27;87961;-37
2023/01/10 11:29:22;;;;;;;;;;;;;;;;;;5104052;27;88104;-37
2023/01/10 11:31:48;;;;;;;;;;;;;;;;;;5104774;27;87859;-37
2023/01/10 11:34:14;;;;;;;;;;;;;;;;;;5104217;27;88136;-38
2023/01/10 11:36:40;;;;;;;;;;;;;;;;;;5107451;27;86904;-37
2023/01/10 11:39:06;;;;;;;;;;;;;;;;;;5104424;27;87064;-37
2023/01/10 11:41:33;;;;;;;;;;;;;;;;;;5104821;27;87171;-37
2023/01/10 11:43:59;;;;;;;;;;;;;;;;;;5104689;27;86991;-37
2023/01/10 11:46:25;;;;;;;;;;;;;;;;;;5104774;27;87239;-37
2023/01/10 11:48:50;;;;;;;;;;;;;;;;;;5103706;27;87127;-37
2023/01/10 11:51:16;;;;;;;;;;;;;;;;;;5104362;27;87399;-38
2023/01/10 11:53:42;;;;;;;;;;;;;;;;;;5103345;27;88854;-37
2023/01/10 11:56:08;;;;;;;;;;;;;;;;;;5107074;27;87147;-37
2023/01/10 11:58:34;;;;;;;;;;;;;;;;;;5103816;27;88081;-37
2023/01/10 12:01:00;;;;;;;;;;;;;;;;;;5104575;27;87054;-37
2023/01/10 12:03:27;;;;;;;;;;;;;;;;;;5104407;27;86923;-37
2023/01/10 12:05:53;;;;;;;;;;;;;;;;;;5103786;27;87933;-37
2023/01/10 12:08:19;;;;;;;;;;;;;;;;;;5104585;27;87125;-37
2023/01/10 12:10:45;;;;;;;;;;;;;;;;;;5104633;27;87541;-37
2023/01/10 12:13:11;;;;;;;;;;;;;;;;;;5103931;27;87911;-37
2023/01/10 12:15:37;;;;;;;;;;;;;;;;;;5104241;27;87206;-37
2023/01/10 12:18:03;;;;;;;;;;;;;;;;;;5106355;27;87865;-37
2023/01/10 12:20:29;;;;;;;;;;;;;;;;;;5103493;27;87202;-37
2023/01/10 12:22:54;;;;;;;;;;;;;;;;;;5104299;27;87002;-37
2023/01/10 12:25:20;;;;;;;;;;;;;;;;;;5103888;27;88254;-37
2023/01/10 12:27:49;;;;;;;;;;;;;;;;;;5103709;27;87057;-37
2023/01/10 12:30:15;;;;;;;;;;;;;;;;;;5103980;27;87005;-37
2023/01/10 12:32:41;;;;;;;;;;;;;;;;;;5103467;27;87870;-37
2023/01/10 12:35:06;;;;;;;;;;;;;;;;;;5103831;27;86354;-37
2023/01/10 12:37:32;;;;;;;;;;;;;;;;;;5103966;27;86866;-37
2023/01/10 12:39:58;;;;;;;;;;;;;;;;;;5106304;27;88302;-37
2023/01/10 12:45:09;;;;;;;;;;;;;;;;;;5102864;27;87153;-37
2023/01/10 12:47:35;;;;;;;;;;;;;;;;;;5103687;27;87245;-37
2023/01/10 12:50:01;;;;;;;;;;;;;;;;;;5103138;27;88339;-37
2023/01/10 12:52:26;;;;;;;;;;;;;;;;;;5103239;27;87933;-37
2023/01/10 12:54:52;;;;;;;;;;;;;;;;;;5103595;27;87178;-37
2023/01/10 12:57:18;;;;;;;;;;;;;;;;;;5103783;27;86997;-37
2023/01/10 12:59:44;;;;;;;;;;;;;;;;;;5103917;27;87380;-37
2023/01/10 13:02:10;;;;;;;;;;;;;;;;;;5106030;27;86999;-37
2023/01/10 13:04:36;;;;;;;;;;;;;;;;;;5103246;27;88196;-37
2023/01/10 13:07:02;;;;;;;;;;;;;;;;;;5102892;27;88056;-37
2023/01/10 13:09:28;;;;;;;;;;;;;;;;;;5105080;27;87027;-37
2023/01/10 13:11:54;;;;;;;;;;;;;;;;;;5106587;27;88057;-37
2023/01/10 13:14:20;;;;;;;;;;;;;;;;;;5106953;27;87070;-37
2023/01/10 13:16:45;;;;;;;;;;;;;;;;;;5106899;27;87196;-37
2023/01/10 13:19:13;;;;;;;;;;;;;;;;;;5105933;27;89031;-37
2023/01/10 13:21:39;;;;;;;;;;;;;;;;;;5107222;27;86949;-37
2023/01/10 13:24:05;;;;;;;;;;;;;;;;;;5110056;27;87043;-37
2023/01/10 13:26:31;;;;;;;;;;;;;;;;;;5106666;27;87173;-37
2023/01/10 13:28:56;;;;;;;;;;;;;;;;;;5106735;27;86930;-37
2023/01/10 13:31:22;;;;;;;;;;;;;;;;;;5105582;27;89002;-37
2023/01/10 13:33:48;;;;;;;;;;;;;;;;;;5106438;27;86971;-37
2023/01/10 13:36:14;;;;;;;;;;;;;;;;;;5106663;27;87006;-37
2023/01/10 13:38:40;;;;;;;;;;;;;;;;;;5106515;27;88140;-37
2023/01/10 13:41:06;;;;;;;;;;;;;;;;;;5106600;27;87145;-37
2023/01/10 13:43:35;;;;;;;;;;;;;;;;;;5108753;27;88302;-37
2023/01/10 13:46:01;;;;;;;;;;;;;;;;;;5106276;27;87164;-38
2023/01/10 13:48:27;;;;;;;;;;;;;;;;;;5106325;27;86974;-37
2023/01/10 13:50:53;;;;;;;;;;;;;;;;;;5105660;27;89137;-37
2023/01/10 13:53:19;;;;;;;;;;;;;;;;;;5106315;27;87227;-37
2023/01/10 13:55:48;;;;;;;;;;;;;;;;;;5105642;27;88458;-37
2023/01/10 13:58:14;;;;;;;;;;;;;;;;;;5105611;27;89778;-37
2023/01/10 14:03:24;;;;;;;;;;;;;;;;;;5103916;27;86980;-38
2023/01/10 14:05:50;;;;;;;;;;;;;;;;;;5108804;27;88002;-37
2023/01/10 14:08:17;;;;;;;;;;;;;;;;;;5106053;27;86943;-37
2023/01/10 14:10:43;;;;;;;;;;;;;;;;;;5105409;27;89265;-37
2023/01/10 14:13:09;;;;;;;;;;;;;;;;;;5106313;27;86558;-37
2023/01/10 14:15:34;;;;;;;;;;;;;;;;;;5106006;27;87032;-37
2023/01/10 14:18:00;;;;;;;;;;;;;;;;;;5105611;27;88088;-37
2023/01/10 14:20:26;;;;;;;;;;;;;;;;;;5104641;27;88089;-37
2023/01/10 14:22:52;;;;;;;;;;;;;;;;;;5105867;27;87023;-38
2023/01/10 14:25:18;;;;;;;;;;;;;;;;;;5105456;27;88008;-37
2023/01/10 14:27:44;;;;;;;;;;;;;;;;;;5108611;27;87200;-37
2023/01/10 14:30:10;;;;;;;;;;;;;;;;;;5105443;27;87902;-37
2023/01/10 14:32:37;;;;;;;;;;;;;;;;;;5105714;27;87217;-37
2023/01/10 14:35:03;;;;;;;;;;;;;;;;;;5105554;27;88738;-37
2023/01/10 14:37:30;;;;;;;;;;;;;;;;;;5105560;27;88621;-37
2023/01/10 14:39:56;;;;;;;;;;;;;;;;;;5105667;27;87062;-37
2023/01/10 14:42:22;;;;;;;;;;;;;;;;;;5105189;27;88325;-38
2023/01/10 14:44:48;;;;;;;;;;;;;;;;;;5104553;27;89416;-37
2023/01/10 14:47:14;;;;;;;;;;;;;;;;;;5105603;27;87213;-37
2023/01/10 14:49:40;;;;;;;;;;;;;;;;;;5107785;27;87011;-37
2023/01/10 14:52:06;;;;;;;;;;;;;;;;;;5105552;27;87163;-37
2023/01/10 14:54:32;;;;;;;;;;;;;;;;;;5105277;27;87277;-37
2023/01/10 14:56:57;;;;;;;;;;;;;;;;;;5104890;27;88133;-37
2023/01/10 14:59:23;;;;;;;;;;;;;;;;;;5105126;27;87107;-37
2023/01/10 15:01:49;;;;;;;;;;;;;;;;;;5105313;27;88497;-37
2023/01/10 15:04:15;;;;;;;;;;;;;;;;;;5105039;27;88011;-37
2023/01/10 15:06:41;;;;;;;;;;;;;;;;;;5105262;27;87196;-37
2023/01/10 15:09:08;;;;;;;;;;;;;;;;;;5104472;27;87861;-37
2023/01/10 15:11:33;;;;;;;;;;;;;;;;;;5107445;27;88085;-37
2023/01/10 15:13:59;;;;;;;;;;;;;;;;;;5104804;27;87071;-37
2023/01/10 15:16:26;;;;;;;;;;;;;;;;;;5104635;27;87798;-37
2023/01/10 15:18:54;;;;;;;;;;;;;;;;;;5104672;27;87063;-38
2023/01/10 15:21:23;;;;;;;;;;;;;;;;;;5104746;27;88496;-38
2023/01/10 15:23:49;;;;;;;;;;;;;;;;;;5104398;27;89249;-37
2023/01/10 15:26:15;;;;;;;;;;;;;;;;;;5105019;27;86355;-37
2023/01/10 15:28:41;;;;;;;;;;;;;;;;;;5104818;27;87103;-37
2023/01/10 15:31:07;;;;;;;;;;;;;;;;;;5104031;27;87956;-38
2023/01/10 15:33:33;;;;;;;;;;;;;;;;;;5106679;27;88103;-38
2023/01/10 15:35:59;;;;;;;;;;;;;;;;;;5103755;27;89347;-38
2023/01/10 15:38:29;;;;;;;;;;;;;;;;;;5104325;27;87302;-37
2023/01/10 15:40:56;;;;;;;;;;;;;;;;;;5104528;27;88694;-37
2023/01/10 15:43:22;;;;;;;;;;;;;;;;;;5104074;27;88062;-37
2023/01/10 15:45:48;;;;;;;;;;;;;;;;;;5104713;27;87129;-37
2023/01/10 15:48:14;;;;;;;;;;;;;;;;;;5104322;27;87087;-38
2023/01/10 15:50:40;;;;;;;;;;;;;;;;;;5104785;27;87483;-38
2023/01/10 15:53:07;;;;;;;;;;;;;;;;;;5106986;27;86965;-37
2023/01/10 15:55:33;;;;;;;;;;;;;;;;;;5103906;27;87966;-37
2023/01/10 15:58:00;;;;;;;;;;;;;;;;;;5103494;27;88478;-37
2023/01/10 16:00:26;;;;;;;;;;;;;;;;;;5104195;27;89226;-37
2023/01/10 16:02:52;;;;;;;;;;;;;;;;;;5104028;27;87748;-37
2023/01/10 16:05:20;;;;;;;;;;;;;;;;;;5104364;27;87105;-38
2023/01/10 16:07:45;;;;;;;;;;;;;;;;;;5104102;27;88217;-37
2023/01/10 16:10:11;;;;;;;;;;;;;;;;;;5103647;27;86975;-37
2023/01/10 16:15:22;;;;;;;;;;;;;;;;;;5105332;27;86241;-37
2023/01/10 16:17:48;;;;;;;;;;;;;;;;;;5104276;27;87417;-37
2023/01/10 16:20:14;;;;;;;;;;;;;;;;;;5103945;27;87030;-38
2023/01/10 16:22:39;;;;;;;;;;;;;;;;;;5103010;27;88829;-38
2023/01/10 16:25:05;;;;;;;;;;;;;;;;;;5103797;27;87681;-37
2023/01/10 16:27:31;;;;;;;;;;;;;;;;;;5104016;27;87009;-37
2023/01/10 16:29:57;;;;;;;;;;;;;;;;;;5103300;27;89423;-37
2023/01/10 16:32:23;;;;;;;;;;;;;;;;;;5103813;27;87182;-37
2023/01/10 16:34:49;;;;;;;;;;;;;;;;;;5104007;27;87233;-38
2023/01/10 16:37:15;;;;;;;;;;;;;;;;;;5106465;27;87928;-38
2023/01/10 16:39:41;;;;;;;;;;;;;;;;;;5104155;27;86704;-38
2023/01/10 16:44:51;;;;;;;;;;;;;;;;;;5106128;27;87021;-37
2023/01/10 16:47:17;;;;;;;;;;;;;;;;;;5107172;27;87724;-38
2023/01/10 16:49:44;;;;;;;;;;;;;;;;;;5106498;27;88054;-38
2023/01/10 16:52:10;;;;;;;;;;;;;;;;;;5106689;27;87151;-38
2023/01/10 16:54:37;;;;;;;;;;;;;;;;;;5107368;27;87030;-38
2023/01/10 16:57:03;;;;;;;;;;;;;;;;;;5106514;27;88877;-38
2023/01/10 16:59:29;;;;;;;;;;;;;;;;;;5110097;27;87282;-38